首页
METAR-TAF:

METAR-TAF

机场 :

格林维尔, 密西西比州, 美国

纬度: 33-28-58N, 经度: 090-59-08W, 海拔: 40米

当前天气观测

该预报发布于17分钟前的11:53 UTC
风速4节,风向西转西北
温度 1°C
湿度 75%
气压 1028 hPa
能見度: 16.1公里
天空无云

METAR: KGLH 271153Z AUTO 30004KT 10SM CLR 01/M03 A3035 RMK AO2 SLP285 T00061028 10044 20000 50001

时间: 06:10 (12:10 UTC)

预报

该预报发布于46分钟前的11:24 UTC
预报有效从27日的 12点(UTC)到 28日的 12点(UTC)
风速6节,风向西转西北
能見度: 10公里
散云层高于25000英尺

TAF: KGLH 271124Z 2712/2812 30006KT P6SM SCT250

超过4000个机场的气象观测和天气预报(METAR&TAF报告)。

可查询的气象台以黄色和红色小点在地图上表示。

将鼠标移到小点上方,可查看气象台名称。

然后点击查看天气观测和预报。

如需切换地图:点击带黑十字的绿色按钮放大地图;点击带横线的绿色按钮缩小地图;或者点击绿色箭头查看邻近地区的地图。


METAR-TAF: